createdAt,value
2022-10-01T00:09:26.135Z,63.10
2022-10-01T00:19:32.156Z,61.60
2022-10-01T00:29:38.894Z,58.60
2022-10-01T00:39:45.632Z,56.50
2022-10-01T00:49:54.596Z,57.10
2022-10-01T01:00:03.611Z,58.90
2022-10-01T01:10:10.277Z,58.50
2022-10-01T01:20:33.276Z,56.50
2022-10-01T01:30:42.353Z,57.80
2022-10-01T01:40:52.096Z,54.00
2022-10-01T01:51:01.622Z,55.30
2022-10-01T02:01:08.124Z,54.80
2022-10-01T02:11:30.857Z,54.30
2022-10-01T02:22:03.639Z,55.80
2022-10-01T02:32:10.701Z,58.40
2022-10-01T02:42:18.764Z,55.20
2022-10-01T02:52:24.788Z,51.10
2022-10-01T03:02:32.706Z,59.60
2022-10-01T03:12:39.220Z,64.80
2022-10-01T03:22:48.789Z,59.70
2022-10-01T03:32:53.892Z,68.85
2022-10-01T03:43:08.718Z,58.20
2022-10-01T03:53:14.741Z,64.70
2022-10-01T04:03:20.786Z,60.10
2022-10-01T04:13:27.109Z,56.60
2022-10-01T04:23:33.139Z,55.60
2022-10-01T04:33:39.167Z,62.80
2022-10-01T04:43:45.261Z,55.70
2022-10-01T04:53:51.449Z,57.20
2022-10-01T05:03:57.461Z,61.50
2022-10-01T05:14:03.459Z,62.70
2022-10-01T05:24:09.532Z,59.70
2022-10-01T05:34:15.612Z,60.00
2022-10-01T05:44:21.704Z,54.90
2022-10-01T05:54:31.536Z,55.80
2022-10-01T06:04:40.990Z,51.00
2022-10-01T06:14:47.279Z,49.90
2022-10-01T06:24:56.619Z,55.20
2022-10-01T06:35:03.035Z,56.80
2022-10-01T06:45:09.261Z,57.00
2022-10-01T06:55:16.802Z,60.20
2022-10-01T07:05:23.532Z,57.00
2022-10-01T07:15:29.832Z,59.80
2022-10-01T07:25:36.069Z,59.10
2022-10-01T07:35:42.694Z,62.00
2022-10-01T07:45:50.800Z,57.90
2022-10-01T07:55:57.312Z,57.00
2022-10-01T08:06:05.601Z,57.50
2022-10-01T08:16:13.054Z,62.30
2022-10-01T08:26:19.084Z,64.70
2022-10-01T08:36:25.467Z,67.60
2022-10-01T08:46:33.000Z,59.50
2022-10-01T08:56:41.636Z,55.60
2022-10-01T09:06:49.214Z,66.10
2022-10-01T09:16:58.273Z,55.30
2022-10-01T09:27:10.061Z,48.80
2022-10-01T09:37:37.602Z,43.50
2022-10-01T09:47:46.094Z,41.50
2022-10-01T09:57:54.888Z,44.90
2022-10-01T10:08:04.248Z,46.80
2022-10-01T10:18:13.836Z,45.60
2022-10-01T10:28:22.293Z,42.60
2022-10-01T10:38:31.790Z,47.10
2022-10-01T10:48:46.398Z,47.40
2022-10-01T10:58:53.138Z,44.50
2022-10-01T11:09:08.371Z,42.00
2022-10-01T11:19:33.383Z,40.30
2022-10-01T11:29:39.360Z,37.70
2022-10-01T11:39:46.103Z,34.60
2022-10-01T11:50:04.363Z,34.90
2022-10-01T12:00:12.116Z,31.30
2022-10-01T12:10:27.139Z,30.50
2022-10-01T12:20:33.133Z,31.60
2022-10-01T12:30:43.428Z,38.50
2022-10-01T12:40:55.617Z,33.80
2022-10-01T12:51:20.814Z,32.90
2022-10-01T13:01:46.064Z,30.40
2022-10-01T13:11:56.860Z,23.00
2022-10-01T13:22:15.959Z,22.70
2022-10-01T13:32:36.365Z,22.50
2022-10-01T13:42:46.792Z,23.00
2022-10-01T13:52:54.004Z,22.70
2022-10-01T14:03:07.869Z,23.60
2022-10-01T14:13:46.503Z,18.90
2022-10-01T14:23:59.054Z,18.20
2022-10-01T14:34:16.632Z,20.50
2022-10-01T14:44:32.780Z,20.70
2022-10-01T14:54:44.860Z,18.70
2022-10-01T15:04:56.505Z,16.60
2022-10-01T15:15:03.137Z,18.40
2022-10-01T15:25:17.494Z,19.80
2022-10-01T15:35:24.570Z,17.90
2022-10-01T15:45:30.662Z,23.00
2022-10-01T15:55:41.314Z,24.90
2022-10-01T16:05:48.553Z,23.50
2022-10-01T16:16:13.619Z,25.00
2022-10-01T16:26:30.371Z,23.50
2022-10-01T16:36:38.793Z,21.60
2022-10-01T16:46:44.979Z,21.80
2022-10-01T16:56:52.014Z,23.40
2022-10-01T17:06:58.030Z,25.00
2022-10-01T17:17:04.112Z,25.40
2022-10-01T17:27:10.240Z,25.80
2022-10-01T17:37:16.738Z,26.50
2022-10-01T17:47:22.859Z,25.20
2022-10-01T17:57:28.934Z,26.50
2022-10-01T18:07:38.226Z,30.60
2022-10-01T18:17:51.488Z,20.40
2022-10-01T18:27:57.864Z,15.90
2022-10-01T18:38:06.003Z,17.70
2022-10-01T18:48:50.584Z,14.80
2022-10-01T18:59:05.363Z,15.10
2022-10-01T19:09:23.483Z,16.60
2022-10-01T19:19:36.368Z,18.40
2022-10-01T19:29:42.609Z,21.50
2022-10-01T19:39:52.667Z,16.40
2022-10-01T19:50:00.039Z,25.60
2022-10-01T20:00:18.634Z,18.90
2022-10-01T20:10:44.940Z,20.00
2022-10-01T20:20:53.995Z,18.20
2022-10-01T20:31:17.274Z,18.30
2022-10-01T20:41:24.454Z,18.50
2022-10-01T20:51:32.100Z,19.70
2022-10-01T21:01:41.319Z,18.90
2022-10-01T21:11:50.938Z,20.60
2022-10-01T21:22:03.020Z,20.90
2022-10-01T21:32:28.190Z,17.40
2022-10-01T21:42:40.362Z,19.40
2022-10-01T21:53:05.401Z,17.60
2022-10-01T22:03:11.465Z,17.60
2022-10-01T22:13:20.224Z,17.10
2022-10-01T22:23:28.541Z,16.20
2022-10-01T22:33:38.237Z,15.60
2022-10-01T22:43:44.397Z,14.40
2022-10-01T22:53:59.818Z,13.50
2022-10-01T23:04:05.888Z,14.40
2022-10-01T23:14:21.936Z,14.10
2022-10-01T23:24:34.971Z,12.30
2022-10-01T23:34:47.326Z,12.00
2022-10-01T23:45:03.508Z,13.80
2022-10-01T23:55:34.229Z,12.00
